RYR75DL LFML-LFRS
Flight info
| Callsign | RYR75DL |
|---|---|
| Flight time | 1h 8m |
| Altitude | 32000 |
| Route | LERGA DCT FOUCO/N0434F360 DCT MANAK |
| Aircraft | B738/M-SDE2E3FGHIRWXY/LB1 |
Departure
| Time | 2026-04-29 21:08 |
|---|---|
| Airport | Marseille Provence Airport (LFML) |
Arrival
| Time | 2026-04-29 22:16 |
|---|---|
| Airport | Nantes Atlantique Airport (LFRS) |
| Time | Latitude | Longitude | Altitude | Speed | Heading |
|---|---|---|---|---|---|
| 2026-04-29 20:20 | 43.44224 | 5.21623 | 28 ft | 0 kts | 268° |
| 2026-04-29 21:00 | 43.44223 | 5.21598 | 27 ft | 6 kts | 268° |
| 2026-04-29 21:01 | 43.44209 | 5.21534 | 27 ft | 9 kts | 234° |
| 2026-04-29 21:01 | 43.44168 | 5.21473 | 27 ft | 8 kts | 224° |
| 2026-04-29 21:01 | 43.44128 | 5.21422 | 27 ft | 8 kts | 223° |
| 2026-04-29 21:01 | 43.44093 | 5.21376 | 27 ft | 8 kts | 223° |
| 2026-04-29 21:02 | 43.44045 | 5.21345 | 27 ft | 8 kts | 181° |
| 2026-04-29 21:02 | 43.43989 | 5.21387 | 29 ft | 12 kts | 136° |
| 2026-04-29 21:02 | 43.43930 | 5.21479 | 31 ft | 13 kts | 119° |
| 2026-04-29 21:02 | 43.43944 | 5.21588 | 33 ft | 13 kts | 45° |
| 2026-04-29 21:03 | 43.43980 | 5.21687 | 33 ft | 12 kts | 102° |
| 2026-04-29 21:03 | 43.43928 | 5.21776 | 35 ft | 12 kts | 134° |
| 2026-04-29 21:03 | 43.43871 | 5.21857 | 37 ft | 11 kts | 136° |
| 2026-04-29 21:03 | 43.43819 | 5.21929 | 40 ft | 11 kts | 134° |
| 2026-04-29 21:04 | 43.43765 | 5.22002 | 42 ft | 11 kts | 143° |
| 2026-04-29 21:04 | 43.43701 | 5.22056 | 43 ft | 11 kts | 150° |
| 2026-04-29 21:04 | 43.43618 | 5.22123 | 46 ft | 17 kts | 149° |
| 2026-04-29 21:04 | 43.43498 | 5.22220 | 50 ft | 23 kts | 149° |
| 2026-04-29 21:05 | 43.43386 | 5.22289 | 50 ft | 15 kts | 165° |
| 2026-04-29 21:05 | 43.43302 | 5.22364 | 53 ft | 14 kts | 135° |
| 2026-04-29 21:05 | 43.43237 | 5.22456 | 59 ft | 11 kts | 134° |
| 2026-04-29 21:05 | 43.43186 | 5.22500 | 59 ft | 9 kts | 172° |
| 2026-04-29 21:06 | 43.43130 | 5.22492 | 61 ft | 8 kts | 193° |
| 2026-04-29 21:06 | 43.43087 | 5.22471 | 57 ft | 7 kts | 200° |
| 2026-04-29 21:06 | 43.43048 | 5.22448 | 57 ft | 6 kts | 212° |
| 2026-04-29 21:06 | 43.43049 | 5.22391 | 61 ft | 7 kts | 302° |
| 2026-04-29 21:07 | 43.43110 | 5.22299 | 62 ft | 30 kts | 313° |
| 2026-04-29 21:07 | 43.43425 | 5.21853 | 45 ft | 98 kts | 314° |
| 2026-04-29 21:07 | 43.44028 | 5.20993 | 23 ft | 151 kts | 314° |
| 2026-04-29 21:07 | 43.44821 | 5.19840 | 341 ft | 167 kts | 313° |
| 2026-04-29 21:08 | 43.45597 | 5.18715 | 1101 ft | 164 kts | 316° |
| 2026-04-29 21:08 | 43.46434 | 5.17547 | 1557 ft | 175 kts | 316° |
| 2026-04-29 21:08 | 43.47328 | 5.16309 | 1953 ft | 194 kts | 316° |
| 2026-04-29 21:08 | 43.48321 | 5.14899 | 2199 ft | 217 kts | 315° |
| 2026-04-29 21:09 | 43.49397 | 5.13358 | 2533 ft | 229 kts | 315° |
| 2026-04-29 21:09 | 43.50478 | 5.11809 | 2982 ft | 235 kts | 314° |
| 2026-04-29 21:09 | 43.51729 | 5.10336 | 3449 ft | 245 kts | 328° |
| 2026-04-29 21:09 | 43.53297 | 5.09113 | 3678 ft | 269 kts | 333° |
| 2026-04-29 21:10 | 43.54976 | 5.07927 | 4238 ft | 277 kts | 334° |
| 2026-04-29 21:10 | 43.56701 | 5.06712 | 4976 ft | 279 kts | 333° |
| 2026-04-29 21:10 | 43.58430 | 5.05479 | 5702 ft | 281 kts | 333° |
| 2026-04-29 21:10 | 43.60172 | 5.04218 | 6404 ft | 285 kts | 333° |
| 2026-04-29 21:11 | 43.61912 | 5.02944 | 7109 ft | 286 kts | 333° |
| 2026-04-29 21:11 | 43.63695 | 5.01629 | 7922 ft | 286 kts | 332° |
| 2026-04-29 21:11 | 43.65432 | 5.00340 | 8704 ft | 287 kts | 331° |
| 2026-04-29 21:11 | 43.67198 | 4.99023 | 9513 ft | 288 kts | 331° |
| 2026-04-29 21:12 | 43.68962 | 4.97705 | 10308 ft | 289 kts | 330° |
| 2026-04-29 21:12 | 43.70750 | 4.96365 | 10591 ft | 310 kts | 330° |
| 2026-04-29 21:12 | 43.72750 | 4.94863 | 10814 ft | 332 kts | 330° |
| 2026-04-29 21:12 | 43.74783 | 4.93335 | 11311 ft | 341 kts | 330° |
| 2026-04-29 21:13 | 43.76896 | 4.91747 | 12034 ft | 345 kts | 330° |
| 2026-04-29 21:13 | 43.79023 | 4.90148 | 12828 ft | 348 kts | 330° |
| 2026-04-29 21:13 | 43.81157 | 4.88541 | 13654 ft | 351 kts | 330° |
| 2026-04-29 21:13 | 43.83295 | 4.86929 | 14381 ft | 355 kts | 330° |
| 2026-04-29 21:14 | 43.85482 | 4.85279 | 15075 ft | 359 kts | 330° |
| 2026-04-29 21:14 | 43.87687 | 4.83614 | 15777 ft | 363 kts | 330° |
| 2026-04-29 21:14 | 43.89920 | 4.81926 | 16467 ft | 367 kts | 330° |
| 2026-04-29 21:14 | 43.92171 | 4.80222 | 17152 ft | 371 kts | 330° |
| 2026-04-29 21:15 | 43.94436 | 4.78508 | 17827 ft | 375 kts | 330° |
| 2026-04-29 21:15 | 43.96733 | 4.76767 | 18484 ft | 379 kts | 330° |
| 2026-04-29 21:15 | 43.99074 | 4.75037 | 19065 ft | 382 kts | 331° |
| 2026-04-29 21:15 | 44.01441 | 4.73269 | 19656 ft | 386 kts | 330° |
| 2026-04-29 21:16 | 44.03790 | 4.71451 | 20235 ft | 389 kts | 329° |
| 2026-04-29 21:16 | 44.06162 | 4.69594 | 20809 ft | 392 kts | 329° |
| 2026-04-29 21:16 | 44.08534 | 4.67736 | 21374 ft | 396 kts | 329° |
| 2026-04-29 21:16 | 44.10954 | 4.65846 | 21929 ft | 399 kts | 329° |
| 2026-04-29 21:17 | 44.13375 | 4.63960 | 22476 ft | 402 kts | 330° |
| 2026-04-29 21:17 | 44.15836 | 4.62047 | 23031 ft | 406 kts | 330° |
| 2026-04-29 21:17 | 44.17479 | 4.60771 | 23394 ft | 408 kts | 330° |
| 2026-04-29 21:17 | 44.19978 | 4.58831 | 23874 ft | 411 kts | 330° |
| 2026-04-29 21:18 | 44.22479 | 4.56889 | 24328 ft | 413 kts | 330° |
| 2026-04-29 21:18 | 44.24979 | 4.54946 | 24794 ft | 415 kts | 330° |
| 2026-04-29 21:18 | 44.27513 | 4.52975 | 25225 ft | 418 kts | 330° |
| 2026-04-29 21:18 | 44.30074 | 4.50981 | 25657 ft | 420 kts | 330° |
| 2026-04-29 21:19 | 44.32639 | 4.48982 | 26082 ft | 423 kts | 329° |
| 2026-04-29 21:19 | 44.35195 | 4.46988 | 26503 ft | 425 kts | 329° |
| 2026-04-29 21:19 | 44.37813 | 4.44943 | 27042 ft | 424 kts | 329° |
| 2026-04-29 21:19 | 44.40350 | 4.42961 | 27657 ft | 421 kts | 329° |
| 2026-04-29 21:20 | 44.42902 | 4.40964 | 28270 ft | 419 kts | 329° |
| 2026-04-29 21:20 | 44.45453 | 4.38966 | 28818 ft | 418 kts | 329° |
| 2026-04-29 21:20 | 44.47997 | 4.36971 | 29354 ft | 418 kts | 329° |
| 2026-04-29 21:20 | 44.50504 | 4.35003 | 29881 ft | 416 kts | 329° |
| 2026-04-29 21:21 | 44.53031 | 4.33017 | 30388 ft | 415 kts | 329° |
| 2026-04-29 21:21 | 44.55542 | 4.31042 | 30853 ft | 413 kts | 329° |
| 2026-04-29 21:21 | 44.58051 | 4.29066 | 31297 ft | 412 kts | 329° |
| 2026-04-29 21:21 | 44.60566 | 4.27084 | 31607 ft | 415 kts | 329° |
| 2026-04-29 21:22 | 44.63082 | 4.25098 | 31850 ft | 414 kts | 329° |
| 2026-04-29 21:22 | 44.65556 | 4.23145 | 32071 ft | 411 kts | 329° |
| 2026-04-29 21:22 | 44.68061 | 4.21165 | 32062 ft | 413 kts | 329° |
| 2026-04-29 21:23 | 44.73022 | 4.17237 | 32074 ft | 409 kts | 328° |
| 2026-04-29 21:23 | 44.77982 | 4.13302 | 32079 ft | 409 kts | 328° |
| 2026-04-29 21:24 | 44.82918 | 4.09378 | 32080 ft | 409 kts | 328° |
| 2026-04-29 21:24 | 44.87779 | 4.05507 | 32081 ft | 409 kts | 328° |
| 2026-04-29 21:25 | 44.92754 | 4.01537 | 32072 ft | 409 kts | 328° |
| 2026-04-29 21:25 | 44.97710 | 3.97574 | 32073 ft | 409 kts | 328° |
| 2026-04-29 21:26 | 45.02639 | 3.93625 | 32069 ft | 409 kts | 328° |
| 2026-04-29 21:26 | 45.07580 | 3.89658 | 32067 ft | 408 kts | 328° |
| 2026-04-29 21:27 | 45.12535 | 3.85671 | 32068 ft | 408 kts | 328° |
| 2026-04-29 21:27 | 45.17451 | 3.81709 | 32063 ft | 408 kts | 328° |
| 2026-04-29 21:28 | 45.22408 | 3.77695 | 32059 ft | 408 kts | 326° |
| 2026-04-29 21:28 | 45.24568 | 3.75148 | 32061 ft | 403 kts | 308° |
| 2026-04-29 21:28 | 45.26109 | 3.71917 | 32057 ft | 400 kts | 294° |
| 2026-04-29 21:28 | 45.27006 | 3.68197 | 32071 ft | 397 kts | 283° |
| 2026-04-29 21:29 | 45.27644 | 3.64384 | 32061 ft | 398 kts | 282° |
| 2026-04-29 21:29 | 45.28858 | 3.56673 | 32053 ft | 399 kts | 282° |
| 2026-04-29 21:30 | 45.30084 | 3.48979 | 32044 ft | 401 kts | 282° |
| 2026-04-29 21:30 | 45.31342 | 3.41243 | 32043 ft | 402 kts | 282° |
| 2026-04-29 21:31 | 45.32602 | 3.33543 | 32041 ft | 403 kts | 282° |
| 2026-04-29 21:31 | 45.33872 | 3.25773 | 32043 ft | 403 kts | 282° |
| 2026-04-29 21:32 | 45.35137 | 3.18004 | 32042 ft | 403 kts | 282° |
| 2026-04-29 21:32 | 45.36390 | 3.10267 | 32050 ft | 404 kts | 282° |
| 2026-04-29 21:33 | 45.37651 | 3.02448 | 32047 ft | 404 kts | 282° |
| 2026-04-29 21:33 | 45.38903 | 2.94642 | 32047 ft | 405 kts | 281° |
| 2026-04-29 21:34 | 45.40147 | 2.86851 | 32047 ft | 406 kts | 281° |
| 2026-04-29 21:34 | 45.41391 | 2.79029 | 32047 ft | 406 kts | 281° |
| 2026-04-29 21:35 | 45.42635 | 2.71163 | 32045 ft | 406 kts | 281° |
| 2026-04-29 21:35 | 45.43875 | 2.63285 | 32040 ft | 407 kts | 281° |
| 2026-04-29 21:36 | 45.45101 | 2.55459 | 32039 ft | 407 kts | 281° |
| 2026-04-29 21:36 | 45.46329 | 2.47587 | 32040 ft | 406 kts | 281° |
| 2026-04-29 21:37 | 45.47551 | 2.39716 | 32034 ft | 406 kts | 281° |
| 2026-04-29 21:37 | 45.48761 | 2.31880 | 32032 ft | 406 kts | 281° |
| 2026-04-29 21:38 | 45.49971 | 2.24002 | 32034 ft | 407 kts | 281° |
| 2026-04-29 21:38 | 45.51172 | 2.16149 | 32034 ft | 407 kts | 281° |
| 2026-04-29 21:39 | 45.52376 | 2.08236 | 32031 ft | 407 kts | 280° |
| 2026-04-29 21:39 | 45.53568 | 2.00365 | 32028 ft | 408 kts | 280° |
| 2026-04-29 21:40 | 45.54715 | 1.92753 | 32028 ft | 408 kts | 280° |
| 2026-04-29 21:40 | 45.55903 | 1.84825 | 32027 ft | 409 kts | 280° |
| 2026-04-29 21:41 | 45.57084 | 1.76913 | 32029 ft | 409 kts | 280° |
| 2026-04-29 21:41 | 45.58264 | 1.68959 | 32025 ft | 409 kts | 280° |
| 2026-04-29 21:42 | 45.59448 | 1.60946 | 32012 ft | 409 kts | 280° |
| 2026-04-29 21:42 | 45.60611 | 1.53030 | 32003 ft | 409 kts | 279° |
| 2026-04-29 21:43 | 45.61773 | 1.45079 | 32023 ft | 409 kts | 279° |
| 2026-04-29 21:43 | 45.62933 | 1.37099 | 32014 ft | 408 kts | 279° |
| 2026-04-29 21:44 | 45.64078 | 1.29187 | 32026 ft | 408 kts | 279° |
| 2026-04-29 21:44 | 45.65216 | 1.21280 | 32021 ft | 407 kts | 279° |
| 2026-04-29 21:45 | 45.66352 | 1.13343 | 32021 ft | 407 kts | 279° |
| 2026-04-29 21:45 | 45.67477 | 1.05440 | 32012 ft | 407 kts | 279° |
| 2026-04-29 21:46 | 45.68605 | 0.97478 | 32015 ft | 407 kts | 278° |
| 2026-04-29 21:46 | 45.69724 | 0.89533 | 32003 ft | 407 kts | 278° |
| 2026-04-29 21:47 | 45.70836 | 0.81604 | 32003 ft | 408 kts | 278° |
| 2026-04-29 21:47 | 45.71941 | 0.73686 | 31980 ft | 397 kts | 278° |
| 2026-04-29 21:48 | 45.72998 | 0.66070 | 31980 ft | 393 kts | 278° |
| 2026-04-29 21:48 | 45.74063 | 0.58333 | 31605 ft | 397 kts | 278° |
| 2026-04-29 21:48 | 45.74602 | 0.54421 | 31251 ft | 393 kts | 277° |
| 2026-04-29 21:49 | 45.75120 | 0.50645 | 30888 ft | 390 kts | 278° |
| 2026-04-29 21:49 | 45.75830 | 0.46863 | 30446 ft | 393 kts | 287° |
| 2026-04-29 21:49 | 45.76924 | 0.43233 | 29801 ft | 400 kts | 292° |
| 2026-04-29 21:49 | 45.78122 | 0.39645 | 29330 ft | 398 kts | 292° |
| 2026-04-29 21:50 | 45.79341 | 0.36069 | 28922 ft | 395 kts | 293° |
| 2026-04-29 21:50 | 45.80525 | 0.32588 | 28529 ft | 391 kts | 292° |
| 2026-04-29 21:50 | 45.81705 | 0.29086 | 28141 ft | 388 kts | 292° |
| 2026-04-29 21:50 | 45.82863 | 0.25616 | 27761 ft | 385 kts | 292° |
| 2026-04-29 21:51 | 45.84009 | 0.22153 | 27387 ft | 382 kts | 292° |
| 2026-04-29 21:51 | 45.85145 | 0.18702 | 27016 ft | 379 kts | 292° |
| 2026-04-29 21:51 | 45.87358 | 0.11945 | 26289 ft | 374 kts | 292° |
| 2026-04-29 21:52 | 45.88460 | 0.08569 | 25926 ft | 372 kts | 292° |
| 2026-04-29 21:52 | 45.89555 | 0.05212 | 25567 ft | 370 kts | 292° |
| 2026-04-29 21:52 | 45.90631 | 0.01907 | 25202 ft | 368 kts | 292° |
| 2026-04-29 21:52 | 45.91728 | -0.01468 | 24838 ft | 367 kts | 292° |
| 2026-04-29 21:53 | 45.92792 | -0.04743 | 24474 ft | 366 kts | 293° |
| 2026-04-29 21:53 | 45.93867 | -0.08059 | 24112 ft | 365 kts | 293° |
| 2026-04-29 21:53 | 45.94935 | -0.11355 | 23738 ft | 364 kts | 293° |
| 2026-04-29 21:53 | 45.96008 | -0.14669 | 23341 ft | 364 kts | 293° |
| 2026-04-29 21:54 | 45.97068 | -0.17949 | 22943 ft | 362 kts | 293° |
| 2026-04-29 21:54 | 45.98129 | -0.21235 | 22576 ft | 360 kts | 293° |
| 2026-04-29 21:54 | 45.99172 | -0.24471 | 22198 ft | 358 kts | 293° |
| 2026-04-29 21:54 | 46.00218 | -0.27718 | 21849 ft | 356 kts | 293° |
| 2026-04-29 21:55 | 46.01242 | -0.30903 | 21540 ft | 352 kts | 293° |
| 2026-04-29 21:55 | 46.02264 | -0.34084 | 21226 ft | 350 kts | 293° |
| 2026-04-29 21:55 | 46.03284 | -0.37263 | 20915 ft | 348 kts | 293° |
| 2026-04-29 21:55 | 46.04294 | -0.40410 | 20615 ft | 345 kts | 294° |
| 2026-04-29 21:56 | 46.05601 | -0.43335 | 20168 ft | 350 kts | 311° |
| 2026-04-29 21:56 | 46.07275 | -0.45879 | 19776 ft | 351 kts | 314° |
| 2026-04-29 21:56 | 46.08998 | -0.48410 | 19460 ft | 349 kts | 314° |
| 2026-04-29 21:56 | 46.10700 | -0.50899 | 19166 ft | 347 kts | 314° |
| 2026-04-29 21:57 | 46.12365 | -0.53344 | 18876 ft | 345 kts | 314° |
| 2026-04-29 21:57 | 46.14050 | -0.55832 | 18561 ft | 344 kts | 314° |
| 2026-04-29 21:57 | 46.15724 | -0.58314 | 18241 ft | 343 kts | 314° |
| 2026-04-29 21:57 | 46.17377 | -0.60777 | 17917 ft | 341 kts | 313° |
| 2026-04-29 21:58 | 46.19015 | -0.63222 | 17598 ft | 340 kts | 313° |
| 2026-04-29 21:58 | 46.20647 | -0.65664 | 17276 ft | 338 kts | 313° |
| 2026-04-29 21:58 | 46.22285 | -0.68120 | 16959 ft | 336 kts | 313° |
| 2026-04-29 21:58 | 46.23904 | -0.70549 | 16645 ft | 335 kts | 313° |
| 2026-04-29 21:59 | 46.25514 | -0.72968 | 16330 ft | 333 kts | 313° |
| 2026-04-29 21:59 | 46.27121 | -0.75385 | 16024 ft | 332 kts | 313° |
| 2026-04-29 21:59 | 46.28696 | -0.77757 | 15727 ft | 330 kts | 313° |
| 2026-04-29 21:59 | 46.30309 | -0.80187 | 15421 ft | 329 kts | 313° |
| 2026-04-29 22:00 | 46.31861 | -0.82527 | 15139 ft | 327 kts | 313° |
| 2026-04-29 22:00 | 46.33444 | -0.84917 | 14757 ft | 328 kts | 313° |
| 2026-04-29 22:00 | 46.35039 | -0.87327 | 14454 ft | 328 kts | 313° |
| 2026-04-29 22:00 | 46.36086 | -0.88909 | 14264 ft | 327 kts | 313° |
| 2026-04-29 22:01 | 46.38163 | -0.92052 | 13890 ft | 325 kts | 312° |
| 2026-04-29 22:01 | 46.39730 | -0.94427 | 13592 ft | 323 kts | 312° |
| 2026-04-29 22:01 | 46.40756 | -0.95983 | 13381 ft | 322 kts | 312° |
| 2026-04-29 22:01 | 46.42305 | -0.98332 | 13097 ft | 320 kts | 312° |
| 2026-04-29 22:02 | 46.43838 | -1.00661 | 12817 ft | 318 kts | 312° |
| 2026-04-29 22:02 | 46.45359 | -1.02971 | 12539 ft | 316 kts | 312° |
| 2026-04-29 22:02 | 46.47832 | -1.06734 | 12105 ft | 312 kts | 312° |
| 2026-04-29 22:02 | 46.50777 | -1.11222 | 11573 ft | 309 kts | 312° |
| 2026-04-29 22:03 | 46.52269 | -1.13499 | 11313 ft | 307 kts | 312° |
| 2026-04-29 22:03 | 46.53724 | -1.15721 | 11060 ft | 306 kts | 312° |
| 2026-04-29 22:03 | 46.55191 | -1.17964 | 10801 ft | 304 kts | 312° |
| 2026-04-29 22:03 | 46.56647 | -1.20191 | 10536 ft | 303 kts | 312° |
| 2026-04-29 22:04 | 46.58100 | -1.22414 | 10261 ft | 302 kts | 312° |
| 2026-04-29 22:04 | 46.59533 | -1.24611 | 10011 ft | 301 kts | 312° |
| 2026-04-29 22:04 | 46.61458 | -1.27562 | 9637 ft | 300 kts | 312° |
| 2026-04-29 22:04 | 46.62413 | -1.29028 | 9433 ft | 300 kts | 312° |
| 2026-04-29 22:05 | 46.63843 | -1.31226 | 9125 ft | 298 kts | 312° |
| 2026-04-29 22:05 | 46.65276 | -1.33428 | 8820 ft | 297 kts | 312° |
| 2026-04-29 22:05 | 46.68094 | -1.37766 | 8230 ft | 295 kts | 312° |
| 2026-04-29 22:06 | 46.69494 | -1.39924 | 7935 ft | 294 kts | 312° |
| 2026-04-29 22:06 | 46.70905 | -1.42099 | 7636 ft | 294 kts | 312° |
| 2026-04-29 22:06 | 46.72313 | -1.44274 | 7343 ft | 293 kts | 312° |
| 2026-04-29 22:06 | 46.73698 | -1.46412 | 7051 ft | 292 kts | 312° |
| 2026-04-29 22:07 | 46.75103 | -1.48585 | 6751 ft | 291 kts | 313° |
| 2026-04-29 22:07 | 46.76485 | -1.50725 | 6443 ft | 291 kts | 313° |
| 2026-04-29 22:07 | 46.77875 | -1.52877 | 6129 ft | 292 kts | 313° |
| 2026-04-29 22:07 | 46.79264 | -1.55030 | 5822 ft | 291 kts | 313° |
| 2026-04-29 22:08 | 46.80639 | -1.57163 | 5518 ft | 291 kts | 313° |
| 2026-04-29 22:08 | 46.82036 | -1.59331 | 5218 ft | 290 kts | 313° |
| 2026-04-29 22:08 | 46.83383 | -1.61424 | 5040 ft | 284 kts | 313° |
| 2026-04-29 22:08 | 46.84730 | -1.63518 | 4913 ft | 277 kts | 313° |
| 2026-04-29 22:09 | 46.86011 | -1.65512 | 4787 ft | 270 kts | 313° |
| 2026-04-29 22:09 | 46.87293 | -1.67508 | 4665 ft | 263 kts | 313° |
| 2026-04-29 22:09 | 46.88517 | -1.69414 | 4556 ft | 256 kts | 313° |
| 2026-04-29 22:09 | 46.89755 | -1.71102 | 4485 ft | 242 kts | 333° |
| 2026-04-29 22:10 | 46.91324 | -1.71553 | 4377 ft | 218 kts | 12° |
| 2026-04-29 22:10 | 46.91988 | -1.71384 | 4346 ft | 209 kts | 16° |
| 2026-04-29 22:10 | 46.93118 | -1.71051 | 4197 ft | 203 kts | 17° |
| 2026-04-29 22:11 | 46.94501 | -1.70628 | 3864 ft | 203 kts | 17° |
| 2026-04-29 22:11 | 46.95882 | -1.70208 | 3603 ft | 201 kts | 17° |
| 2026-04-29 22:11 | 46.97246 | -1.69796 | 3334 ft | 200 kts | 17° |
| 2026-04-29 22:11 | 46.98595 | -1.69392 | 3047 ft | 199 kts | 17° |
| 2026-04-29 22:12 | 46.99936 | -1.68993 | 2867 ft | 190 kts | 17° |
| 2026-04-29 22:12 | 47.01204 | -1.68619 | 2632 ft | 185 kts | 17° |
| 2026-04-29 22:12 | 47.02464 | -1.68246 | 2341 ft | 185 kts | 17° |
| 2026-04-29 22:12 | 47.03728 | -1.67872 | 2056 ft | 183 kts | 17° |
| 2026-04-29 22:13 | 47.04973 | -1.67505 | 1801 ft | 182 kts | 16° |
| 2026-04-29 22:13 | 47.06120 | -1.67167 | 1547 ft | 181 kts | 15° |
| 2026-04-29 22:13 | 47.07330 | -1.66808 | 1444 ft | 177 kts | 17° |
| 2026-04-29 22:13 | 47.08454 | -1.66238 | 1312 ft | 168 kts | 27° |
| 2026-04-29 22:14 | 47.09484 | -1.65531 | 1134 ft | 157 kts | 31° |
| 2026-04-29 22:14 | 47.10428 | -1.64808 | 917 ft | 150 kts | 30° |
| 2026-04-29 22:14 | 47.11348 | -1.64104 | 718 ft | 148 kts | 29° |
| 2026-04-29 22:14 | 47.12261 | -1.63404 | 534 ft | 149 kts | 28° |
| 2026-04-29 22:15 | 47.13191 | -1.62695 | 324 ft | 150 kts | 27° |
| 2026-04-29 22:15 | 47.14026 | -1.62056 | 144 ft | 148 kts | 27° |
| 2026-04-29 22:15 | 47.14880 | -1.61408 | 95 ft | 115 kts | 27° |
| 2026-04-29 22:15 | 47.15396 | -1.61016 | 94 ft | 56 kts | 27° |
| 2026-04-29 22:16 | 47.15625 | -1.60840 | 96 ft | 8 kts | 27° |
| 2026-04-29 22:16 | 47.10017 | -1.65124 | 820 ft | 148 kts | 31° |
| 2026-04-29 22:16 | 47.10909 | -1.64440 | 807 ft | 149 kts | 30° |
| 2026-04-29 22:16 | 47.11817 | -1.63740 | 630 ft | 149 kts | 29° |
| 2026-04-29 22:17 | 47.12653 | -1.63104 | 449 ft | 150 kts | 27° |
| 2026-04-29 22:17 | 47.13386 | -1.62545 | 294 ft | 149 kts | 27° |
| 2026-04-29 22:17 | 47.14302 | -1.61847 | 103 ft | 146 kts | 27° |
| 2026-04-29 22:17 | 47.15088 | -1.61245 | 95 ft | 97 kts | 27° |
| 2026-04-29 22:18 | 47.13719 | -1.62291 | 210 ft | 148 kts | 26° |